Time;durP1;ratioP1;P1;durP2;ratioP2;P2;SDS_P1;SDS_P2;PMS_P1;PMS_P2;Temp;Humidity;BMP_temperature;BMP_pressure;BME280_temperature;BME280_humidity;BME280_pressure;Samples;Min_cycle;Max_cycle;Signal;HPM_P1;HPM_P2
2022/03/26 00:00:33;;;;;;;91.93;52.60;;;;;;;;;;5120319;27;20418;-74
2022/03/26 00:02:58;;;;;;;130.23;69.03;;;;;;;;;;5108375;27;20093;-74
2022/03/26 00:05:24;;;;;;;145.40;81.10;;;;;;;;;;5115982;27;20354;-76
2022/03/26 00:07:49;;;;;;;118.82;66.47;;;;;;;;;;5112720;27;20030;-76
2022/03/26 00:10:14;;;;;;;116.07;66.05;;;;;;;;;;5118992;27;20047;-82
2022/03/26 00:12:41;;;;;;;112.68;64.45;;;;;;;;;;5117713;27;20499;-78
2022/03/26 00:15:07;;;;;;;96.47;52.30;;;;;;;;;;5119635;27;20099;-69
2022/03/26 00:17:33;;;;;;;63.03;33.92;;;;;;;;;;5117186;27;20023;-69
2022/03/26 00:19:58;;;;;;;59.47;31.13;;;;;;;;;;5109349;27;20095;-70
2022/03/26 00:22:24;;;;;;;44.60;26.90;;;;;;;;;;5110711;27;20433;-68
2022/03/26 00:24:49;;;;;;;103.68;54.97;;;;;;;;;;5114989;27;20073;-70
2022/03/26 00:27:15;;;;;;;129.95;68.68;;;;;;;;;;5116818;27;20026;-69
2022/03/26 00:29:40;;;;;;;129.57;63.40;;;;;;;;;;5116869;27;20023;-73
2022/03/26 00:32:06;;;;;;;85.07;43.65;;;;;;;;;;5117059;27;20024;-68
2022/03/26 00:34:32;;;;;;;72.25;37.58;;;;;;;;;;5116659;27;20071;-70
2022/03/26 00:36:57;;;;;;;77.38;43.00;;;;;;;;;;5116219;27;20023;-75
2022/03/26 00:39:23;;;;;;;66.63;34.97;;;;;;;;;;5117429;27;20465;-76
2022/03/26 00:41:48;;;;;;;92.90;51.38;;;;;;;;;;5116210;27;20037;-75
2022/03/26 00:44:13;;;;;;;97.20;53.42;;;;;;;;;;5110145;27;20117;-77
2022/03/26 00:46:39;;;;;;;81.65;42.17;;;;;;;;;;5116920;27;20408;-71
2022/03/26 00:49:04;;;;;;;62.72;33.17;;;;;;;;;;5115726;27;20455;-70
2022/03/26 00:51:30;;;;;;;63.55;35.28;;;;;;;;;;5118840;27;20113;-71
2022/03/26 00:53:55;;;;;;;64.50;34.30;;;;;;;;;;5115685;27;20031;-72
2022/03/26 00:56:20;;;;;;;72.55;41.95;;;;;;;;;;5111105;27;20023;-74
2022/03/26 00:58:46;;;;;;;121.75;66.10;;;;;;;;;;5118437;27;20042;-77
2022/03/26 01:01:11;;;;;;;154.00;78.47;;;;;;;;;;5112309;27;20126;-70
2022/03/26 01:03:37;;;;;;;181.48;90.82;;;;;;;;;;5114858;27;20058;-77
2022/03/26 01:06:05;;;;;;;204.13;104.93;;;;;;;;;;5114272;27;20356;-72
2022/03/26 01:08:31;;;;;;;187.52;91.95;;;;;;;;;;5113693;27;20087;-69
2022/03/26 01:10:57;;;;;;;170.13;83.43;;;;;;;;;;5117357;27;20019;-69
2022/03/26 01:13:25;;;;;;;160.23;77.60;;;;;;;;;;5118420;27;20104;-71
2022/03/26 01:15:50;;;;;;;138.15;68.57;;;;;;;;;;5118196;27;20038;-73
2022/03/26 01:18:16;;;;;;;118.28;60.25;;;;;;;;;;5116514;27;20037;-73
2022/03/26 01:20:41;;;;;;;68.47;33.90;;;;;;;;;;5116720;27;20105;-77
2022/03/26 01:23:06;;;;;;;57.88;31.42;;;;;;;;;;5115863;27;20038;-69
2022/03/26 01:25:32;;;;;;;49.10;28.17;;;;;;;;;;5116215;27;20031;-69
2022/03/26 01:27:58;;;;;;;32.88;19.13;;;;;;;;;;5117263;27;20749;-69
2022/03/26 01:30:24;;;;;;;40.85;22.95;;;;;;;;;;5118598;27;20422;-68
2022/03/26 01:32:49;;;;;;;42.35;22.58;;;;;;;;;;5116586;27;20047;-69
2022/03/26 01:35:14;;;;;;;38.60;22.00;;;;;;;;;;5116192;27;20370;-69
2022/03/26 01:37:40;;;;;;;34.45;18.83;;;;;;;;;;5117119;27;20034;-69
2022/03/26 01:40:06;;;;;;;39.50;20.92;;;;;;;;;;5108285;27;20038;-69
2022/03/26 01:42:31;;;;;;;40.30;23.70;;;;;;;;;;5111704;27;20039;-67
2022/03/26 01:44:57;;;;;;;42.28;23.55;;;;;;;;;;5111932;27;20112;-69
2022/03/26 01:47:22;;;;;;;51.75;27.30;;;;;;;;;;5107565;27;20029;-76
2022/03/26 01:49:47;;;;;;;63.15;33.53;;;;;;;;;;5114482;27;20460;-77
2022/03/26 01:52:13;;;;;;;74.30;39.42;;;;;;;;;;5119922;27;20043;-75
2022/03/26 01:54:39;;;;;;;100.68;48.45;;;;;;;;;;5114648;27;20381;-74
2022/03/26 01:57:04;;;;;;;100.35;51.15;;;;;;;;;;5115962;27;20028;-70
2022/03/26 01:59:30;;;;;;;115.00;56.85;;;;;;;;;;5116233;28;20051;-69
2022/03/26 02:01:55;;;;;;;121.30;58.97;;;;;;;;;;5116953;28;20027;-73
2022/03/26 02:04:21;;;;;;;99.82;49.80;;;;;;;;;;5114812;27;20038;-73
2022/03/26 02:06:47;;;;;;;92.63;47.40;;;;;;;;;;5115750;27;20025;-74
2022/03/26 02:09:13;;;;;;;85.43;43.90;;;;;;;;;;5114735;28;20035;-70
2022/03/26 02:11:39;;;;;;;82.20;43.60;;;;;;;;;;5118191;27;20027;-69
2022/03/26 02:14:07;;;;;;;70.00;37.90;;;;;;;;;;5111043;28;20023;-71
2022/03/26 02:16:33;;;;;;;95.78;47.40;;;;;;;;;;5105432;27;20080;-78
2022/03/26 02:18:59;;;;;;;90.18;45.25;;;;;;;;;;5111022;27;20034;-71
2022/03/26 02:21:24;;;;;;;71.60;37.47;;;;;;;;;;5117051;27;20186;-71
2022/03/26 02:23:50;;;;;;;57.88;29.00;;;;;;;;;;5113734;28;20026;-74
2022/03/26 02:26:16;;;;;;;47.63;26.50;;;;;;;;;;5106778;28;20034;-69
2022/03/26 02:28:44;;;;;;;54.35;31.10;;;;;;;;;;5113982;28;20442;-70
2022/03/26 02:31:10;;;;;;;56.72;28.90;;;;;;;;;;5115850;27;20097;-69
2022/03/26 02:33:35;;;;;;;49.05;27.10;;;;;;;;;;5115865;27;20066;-73
2022/03/26 02:36:00;;;;;;;57.10;29.75;;;;;;;;;;5114700;27;20047;-75
2022/03/26 02:38:26;;;;;;;56.60;30.55;;;;;;;;;;5114160;27;20023;-77
2022/03/26 02:40:51;;;;;;;60.28;33.17;;;;;;;;;;5114937;27;20039;-75
2022/03/26 02:43:17;;;;;;;63.88;37.15;;;;;;;;;;5115096;27;20081;-68
2022/03/26 02:45:45;;;;;;;69.82;38.70;;;;;;;;;;5109473;28;20103;-72
2022/03/26 02:48:12;;;;;;;58.10;33.85;;;;;;;;;;5109931;28;20031;-70
2022/03/26 02:50:39;;;;;;;58.40;33.15;;;;;;;;;;5112563;27;20067;-69
2022/03/26 02:53:04;;;;;;;63.08;35.35;;;;;;;;;;5115638;28;20473;-69
2022/03/26 02:55:30;;;;;;;62.60;33.40;;;;;;;;;;5115580;28;20110;-69
2022/03/26 02:57:55;;;;;;;64.22;33.20;;;;;;;;;;5113834;27;20024;-73
2022/03/26 03:00:21;;;;;;;62.67;31.52;;;;;;;;;;5115939;28;20122;-71
2022/03/26 03:02:46;;;;;;;58.35;28.90;;;;;;;;;;5117460;28;20031;-70
2022/03/26 03:05:11;;;;;;;58.60;32.35;;;;;;;;;;5115763;28;20024;-72
2022/03/26 03:07:37;;;;;;;70.20;34.47;;;;;;;;;;5117388;28;20023;-70
2022/03/26 03:10:03;;;;;;;74.35;34.60;;;;;;;;;;5116063;28;20054;-68
2022/03/26 03:12:28;;;;;;;53.40;30.08;;;;;;;;;;5115511;28;20035;-69
2022/03/26 03:14:54;;;;;;;58.83;29.58;;;;;;;;;;5115513;28;20159;-69
2022/03/26 03:17:19;;;;;;;66.00;32.63;;;;;;;;;;5114202;27;20023;-69
2022/03/26 03:19:45;;;;;;;65.30;32.53;;;;;;;;;;5118901;27;20034;-69
2022/03/26 03:22:10;;;;;;;55.53;30.23;;;;;;;;;;5122936;27;20059;-70
2022/03/26 03:24:36;;;;;;;59.25;30.67;;;;;;;;;;5117964;27;20023;-69
2022/03/26 03:27:01;;;;;;;62.53;29.95;;;;;;;;;;5121525;27;20106;-75
2022/03/26 03:29:27;;;;;;;51.53;27.00;;;;;;;;;;5108626;27;20022;-77
2022/03/26 03:31:52;;;;;;;50.55;26.67;;;;;;;;;;5116379;27;20066;-81
2022/03/26 03:34:18;;;;;;;54.90;28.02;;;;;;;;;;5120660;27;20363;-74
2022/03/26 03:36:43;;;;;;;50.30;26.55;;;;;;;;;;5118203;27;20081;-70
2022/03/26 03:39:09;;;;;;;53.78;28.92;;;;;;;;;;5114279;27;20035;-74
2022/03/26 03:41:34;;;;;;;48.45;27.23;;;;;;;;;;5116006;27;20039;-69
2022/03/26 03:44:02;;;;;;;52.80;27.40;;;;;;;;;;5116925;27;20023;-69
2022/03/26 03:46:29;;;;;;;52.38;28.80;;;;;;;;;;5119224;27;20091;-69
2022/03/26 03:48:55;;;;;;;64.70;37.13;;;;;;;;;;5118619;27;20020;-71
2022/03/26 03:51:20;;;;;;;67.03;37.78;;;;;;;;;;5117495;27;20034;-76
2022/03/26 03:53:45;;;;;;;73.43;36.55;;;;;;;;;;5119311;27;20027;-77
2022/03/26 03:56:11;;;;;;;70.50;36.33;;;;;;;;;;5120961;27;20027;-70
2022/03/26 03:58:36;;;;;;;53.05;29.42;;;;;;;;;;5117863;27;20431;-74
2022/03/26 04:01:03;;;;;;;46.33;26.67;;;;;;;;;;5116182;27;20032;-72
2022/03/26 04:03:28;;;;;;;46.38;27.80;;;;;;;;;;5112151;27;20027;-69
2022/03/26 04:05:54;;;;;;;47.75;25.95;;;;;;;;;;5119587;27;20028;-69
2022/03/26 04:08:21;;;;;;;52.50;27.77;;;;;;;;;;5118825;27;20035;-73
2022/03/26 04:10:46;;;;;;;54.80;28.55;;;;;;;;;;5120675;27;20461;-70
2022/03/26 04:13:11;;;;;;;60.80;31.50;;;;;;;;;;5115472;27;20114;-69
2022/03/26 04:15:37;;;;;;;53.72;30.40;;;;;;;;;;5115730;27;20033;-70
2022/03/26 04:18:02;;;;;;;53.80;25.92;;;;;;;;;;5116906;27;20016;-71
2022/03/26 04:20:28;;;;;;;49.30;22.85;;;;;;;;;;5114003;27;20038;-70
2022/03/26 04:22:53;;;;;;;50.05;24.00;;;;;;;;;;5108250;27;20571;-70
2022/03/26 04:25:18;;;;;;;46.20;22.58;;;;;;;;;;5112451;27;20070;-74
2022/03/26 04:27:44;;;;;;;43.10;22.75;;;;;;;;;;5115496;27;20027;-73
2022/03/26 04:30:10;;;;;;;46.10;22.35;;;;;;;;;;5118124;27;20353;-71
2022/03/26 04:32:35;;;;;;;46.78;23.25;;;;;;;;;;5118256;27;20088;-72
2022/03/26 04:35:01;;;;;;;61.30;29.33;;;;;;;;;;5117758;27;20362;-73
2022/03/26 04:37:27;;;;;;;101.05;49.20;;;;;;;;;;5122728;27;20690;-77
2022/03/26 04:39:52;;;;;;;93.63;45.97;;;;;;;;;;5124837;27;20079;-70
2022/03/26 04:42:18;;;;;;;65.82;31.70;;;;;;;;;;5113001;27;20106;-77
2022/03/26 04:44:43;;;;;;;51.42;25.10;;;;;;;;;;5121909;27;20034;-70
2022/03/26 04:47:09;;;;;;;47.78;23.70;;;;;;;;;;5120196;27;20409;-70
2022/03/26 04:49:34;;;;;;;47.38;23.40;;;;;;;;;;5113413;27;20052;-73
2022/03/26 04:51:59;;;;;;;47.17;22.75;;;;;;;;;;5108928;27;20019;-71
2022/03/26 04:54:25;;;;;;;40.10;19.27;;;;;;;;;;5119524;27;20023;-70
2022/03/26 04:56:50;;;;;;;40.60;20.63;;;;;;;;;;5115827;27;20015;-74
2022/03/26 04:59:15;;;;;;;50.30;22.52;;;;;;;;;;5115058;27;20101;-69
2022/03/26 05:01:44;;;;;;;45.63;22.67;;;;;;;;;;5110531;27;20031;-69
2022/03/26 05:04:09;;;;;;;45.85;20.02;;;;;;;;;;5116974;27;20038;-72
2022/03/26 05:06:35;;;;;;;42.85;23.27;;;;;;;;;;5115258;27;20362;-71
2022/03/26 05:09:00;;;;;;;64.72;33.50;;;;;;;;;;5115246;27;20042;-73
2022/03/26 05:11:25;;;;;;;65.45;32.85;;;;;;;;;;5114000;27;20113;-72
2022/03/26 05:13:51;;;;;;;59.58;32.72;;;;;;;;;;5117923;27;20050;-76
2022/03/26 05:16:16;;;;;;;59.25;33.83;;;;;;;;;;5116862;27;20038;-76
2022/03/26 05:18:41;;;;;;;66.70;36.60;;;;;;;;;;5115918;27;20011;-71
2022/03/26 05:21:08;;;;;;;59.35;31.85;;;;;;;;;;5116219;27;20030;-71
2022/03/26 05:23:34;;;;;;;81.20;44.83;;;;;;;;;;5116212;27;20031;-72
2022/03/26 05:25:59;;;;;;;77.25;43.15;;;;;;;;;;5109300;27;20034;-68
2022/03/26 05:28:25;;;;;;;119.35;55.45;;;;;;;;;;5118945;27;20434;-69
2022/03/26 05:30:50;;;;;;;112.38;56.15;;;;;;;;;;5116963;27;20027;-68
2022/03/26 05:33:16;;;;;;;137.07;69.75;;;;;;;;;;5119262;27;20034;-72
2022/03/26 05:35:41;;;;;;;96.18;54.35;;;;;;;;;;5115314;27;20020;-75
2022/03/26 05:38:07;;;;;;;77.00;40.38;;;;;;;;;;5115592;27;20019;-69
2022/03/26 05:40:32;;;;;;;101.35;48.78;;;;;;;;;;5113961;27;20038;-69
2022/03/26 05:42:58;;;;;;;89.68;42.90;;;;;;;;;;5114162;27;20045;-70
2022/03/26 05:45:24;;;;;;;67.47;35.22;;;;;;;;;;5116855;27;20077;-73
2022/03/26 05:47:51;;;;;;;62.55;35.25;;;;;;;;;;5111433;27;20450;-72
2022/03/26 05:50:17;;;;;;;70.35;36.38;;;;;;;;;;5107705;27;20876;-78
2022/03/26 05:52:43;;;;;;;76.28;34.08;;;;;;;;;;5113030;27;20852;-75
2022/03/26 05:55:08;;;;;;;76.78;34.03;;;;;;;;;;5112403;27;20031;-69
2022/03/26 05:57:34;;;;;;;66.50;31.65;;;;;;;;;;5115397;27;20019;-69
2022/03/26 06:00:00;;;;;;;90.03;42.17;;;;;;;;;;5113073;27;20027;-67
2022/03/26 06:02:25;;;;;;;91.63;43.80;;;;;;;;;;5115398;27;20019;-75
2022/03/26 06:04:51;;;;;;;103.47;53.92;;;;;;;;;;5103363;28;20030;-67
2022/03/26 06:07:16;;;;;;;81.55;43.20;;;;;;;;;;5105420;27;20015;-70
2022/03/26 06:09:41;;;;;;;62.80;31.85;;;;;;;;;;5105117;27;20015;-76
2022/03/26 06:12:07;;;;;;;61.08;28.75;;;;;;;;;;5106006;27;20027;-69
2022/03/26 06:14:33;;;;;;;57.53;29.83;;;;;;;;;;5105752;27;20384;-69
2022/03/26 06:16:58;;;;;;;55.65;30.77;;;;;;;;;;5103000;27;20055;-74
2022/03/26 06:19:25;;;;;;;49.35;28.23;;;;;;;;;;5103992;28;20139;-79
2022/03/26 06:21:50;;;;;;;45.63;24.85;;;;;;;;;;5105193;28;20077;-76
2022/03/26 06:24:16;;;;;;;38.13;21.52;;;;;;;;;;5105175;28;20050;-79
2022/03/26 06:26:44;;;;;;;40.92;22.55;;;;;;;;;;5103988;27;20027;-78
2022/03/26 06:29:10;;;;;;;34.15;21.52;;;;;;;;;;5105007;27;20058;-70
2022/03/26 06:31:35;;;;;;;36.55;19.60;;;;;;;;;;5104749;27;20058;-70
2022/03/26 06:34:00;;;;;;;55.58;29.55;;;;;;;;;;5102285;27;20028;-70
2022/03/26 06:36:26;;;;;;;51.13;25.42;;;;;;;;;;5107163;28;20446;-71
2022/03/26 06:38:51;;;;;;;48.83;25.65;;;;;;;;;;5104695;27;20019;-79
2022/03/26 06:41:17;;;;;;;40.65;24.52;;;;;;;;;;5109050;28;20031;-75
2022/03/26 06:43:43;;;;;;;48.33;24.05;;;;;;;;;;5111902;27;20024;-78
2022/03/26 06:46:08;;;;;;;62.13;32.75;;;;;;;;;;5106470;27;20458;-73
2022/03/26 06:48:34;;;;;;;64.15;37.47;;;;;;;;;;5107243;27;20064;-72
2022/03/26 06:51:02;;;;;;;70.95;38.95;;;;;;;;;;5106408;27;20377;-71
2022/03/26 06:53:30;;;;;;;89.90;49.95;;;;;;;;;;5111740;27;20027;-68
2022/03/26 06:55:56;;;;;;;116.70;65.25;;;;;;;;;;5118495;27;20026;-71
2022/03/26 06:58:22;;;;;;;126.20;68.07;;;;;;;;;;5115555;27;20098;-69
2022/03/26 07:00:47;;;;;;;104.55;57.78;;;;;;;;;;5114889;27;20121;-69
2022/03/26 07:03:13;;;;;;;86.18;47.47;;;;;;;;;;5117914;27;20031;-75
2022/03/26 07:05:38;;;;;;;74.30;42.40;;;;;;;;;;5110953;27;20110;-68
2022/03/26 07:08:04;;;;;;;61.05;36.65;;;;;;;;;;5117762;27;20462;-72
2022/03/26 07:10:29;;;;;;;53.80;30.77;;;;;;;;;;5120363;27;20051;-71
2022/03/26 07:12:55;;;;;;;47.47;29.15;;;;;;;;;;5118472;27;20042;-72
2022/03/26 07:15:20;;;;;;;55.47;33.92;;;;;;;;;;5120410;27;20027;-71
2022/03/26 07:17:45;;;;;;;110.43;59.10;;;;;;;;;;5106601;27;20038;-72
2022/03/26 07:20:11;;;;;;;121.53;60.08;;;;;;;;;;5111220;27;20019;-70
2022/03/26 07:22:37;;;;;;;100.88;52.60;;;;;;;;;;5107536;27;20023;-69
2022/03/26 07:25:04;;;;;;;68.80;33.75;;;;;;;;;;5118783;27;20117;-74
2022/03/26 07:27:32;;;;;;;55.83;30.27;;;;;;;;;;5118439;27;20102;-73
2022/03/26 07:29:57;;;;;;;99.68;49.28;;;;;;;;;;5115544;27;20458;-68
2022/03/26 07:32:23;;;;;;;118.10;64.07;;;;;;;;;;5115749;27;20035;-70
2022/03/26 07:34:49;;;;;;;95.90;47.92;;;;;;;;;;5111267;27;20015;-70
2022/03/26 07:37:14;;;;;;;59.75;31.63;;;;;;;;;;5111925;27;20034;-69
2022/03/26 07:39:40;;;;;;;111.82;62.67;;;;;;;;;;5114124;27;20024;-69
2022/03/26 07:42:05;;;;;;;83.25;43.70;;;;;;;;;;5114229;27;20027;-74
2022/03/26 07:44:31;;;;;;;45.78;26.77;;;;;;;;;;5117450;27;20012;-78
2022/03/26 07:46:56;;;;;;;41.90;24.15;;;;;;;;;;5117480;27;20076;-76
2022/03/26 07:49:22;;;;;;;35.08;20.38;;;;;;;;;;5107681;27;20070;-76
2022/03/26 07:51:47;;;;;;;52.15;28.95;;;;;;;;;;5109062;27;20054;-70
2022/03/26 07:54:12;;;;;;;47.70;22.10;;;;;;;;;;5120027;27;20039;-75
2022/03/26 07:56:38;;;;;;;48.13;25.23;;;;;;;;;;5117897;27;20019;-76
2022/03/26 07:59:03;;;;;;;51.22;25.83;;;;;;;;;;5121042;27;20038;-75
2022/03/26 08:01:28;;;;;;;44.90;23.80;;;;;;;;;;5115988;27;20035;-78
2022/03/26 08:03:54;;;;;;;36.53;20.67;;;;;;;;;;5106666;27;20027;-76
2022/03/26 08:06:23;;;;;;;40.08;17.42;;;;;;;;;;5107430;27;20077;-73
2022/03/26 08:08:48;;;;;;;56.67;32.08;;;;;;;;;;5110305;27;20015;-74
2022/03/26 08:11:13;;;;;;;30.90;15.27;;;;;;;;;;5110500;27;20433;-73
2022/03/26 08:13:39;;;;;;;26.08;14.63;;;;;;;;;;5105668;27;20038;-77
2022/03/26 08:16:07;;;;;;;31.40;13.57;;;;;;;;;;5105979;27;20027;-72
2022/03/26 08:18:33;;;;;;;31.73;14.80;;;;;;;;;;5104387;27;20034;-71
2022/03/26 08:20:58;;;;;;;26.90;14.27;;;;;;;;;;5104549;27;20016;-78
2022/03/26 08:23:23;;;;;;;27.88;15.60;;;;;;;;;;5106587;27;20025;-76
2022/03/26 08:28:32;;;;;;;26.52;16.50;;;;;;;;;;5106765;27;20129;-73
2022/03/26 08:30:58;;;;;;;25.70;14.23;;;;;;;;;;5106369;27;20102;-71
2022/03/26 08:33:23;;;;;;;39.63;25.08;;;;;;;;;;5106420;27;21058;-70
2022/03/26 08:35:48;;;;;;;33.65;17.35;;;;;;;;;;5114996;27;20399;-68
2022/03/26 08:38:14;;;;;;;28.13;16.35;;;;;;;;;;5106875;27;20022;-66
2022/03/26 08:40:39;;;;;;;24.15;15.45;;;;;;;;;;5112435;27;20023;-67
2022/03/26 08:43:08;;;;;;;26.63;15.88;;;;;;;;;;5115940;27;20042;-65
2022/03/26 08:45:35;;;;;;;28.10;15.68;;;;;;;;;;5114459;27;20023;-68
2022/03/26 08:48:00;;;;;;;25.42;14.50;;;;;;;;;;5108261;27;20024;-67
2022/03/26 08:50:25;;;;;;;29.38;16.52;;;;;;;;;;5105740;27;20051;-69
2022/03/26 08:52:51;;;;;;;30.33;17.40;;;;;;;;;;5106368;27;20031;-69
2022/03/26 08:55:17;;;;;;;126.63;92.43;;;;;;;;;;5109781;27;21065;-70
2022/03/26 08:57:42;;;;;;;47.85;32.58;;;;;;;;;;5111616;27;20077;-70
2022/03/26 09:00:09;;;;;;;36.60;23.05;;;;;;;;;;5108777;27;20446;-67
2022/03/26 09:02:34;;;;;;;54.25;33.20;;;;;;;;;;5109262;27;20030;-67
2022/03/26 09:04:59;;;;;;;30.38;17.45;;;;;;;;;;5108493;27;20457;-70
2022/03/26 09:07:25;;;;;;;553.92;300.88;;;;;;;;;;5104331;27;20058;-68
2022/03/26 09:09:50;;;;;;;103.60;48.03;;;;;;;;;;5106340;27;20019;-71
2022/03/26 09:12:16;;;;;;;39.05;22.27;;;;;;;;;;5105505;27;20490;-68
2022/03/26 09:14:41;;;;;;;32.55;18.10;;;;;;;;;;5111124;27;20023;-72
2022/03/26 09:17:06;;;;;;;38.35;22.35;;;;;;;;;;5109082;27;20023;-70
2022/03/26 09:19:32;;;;;;;27.17;15.55;;;;;;;;;;5112319;27;20027;-70
2022/03/26 09:21:58;;;;;;;143.23;88.03;;;;;;;;;;5108684;27;20370;-70
2022/03/26 09:24:23;;;;;;;44.20;26.05;;;;;;;;;;5105151;27;20023;-74
2022/03/26 09:26:49;;;;;;;32.10;19.70;;;;;;;;;;5110979;27;20026;-75
2022/03/26 09:29:14;;;;;;;25.23;14.77;;;;;;;;;;5107569;27;20027;-73
2022/03/26 09:31:39;;;;;;;23.80;13.43;;;;;;;;;;5105880;27;20450;-72
2022/03/26 09:34:05;;;;;;;18.63;11.10;;;;;;;;;;5117069;27;20027;-73
2022/03/26 09:36:30;;;;;;;21.65;11.63;;;;;;;;;;5117059;27;20031;-72
2022/03/26 09:38:55;;;;;;;16.50;9.27;;;;;;;;;;5116961;27;20018;-76
2022/03/26 09:41:22;;;;;;;80.75;44.85;;;;;;;;;;5117158;27;20031;-75
2022/03/26 09:43:48;;;;;;;52.30;30.35;;;;;;;;;;5111290;27;20020;-74
2022/03/26 09:46:14;;;;;;;26.80;16.83;;;;;;;;;;5115330;27;20035;-73
2022/03/26 09:48:40;;;;;;;26.67;15.77;;;;;;;;;;5117231;27;20038;-74
2022/03/26 09:51:06;;;;;;;26.98;15.23;;;;;;;;;;5110112;27;20055;-74
2022/03/26 09:53:33;;;;;;;60.35;41.15;;;;;;;;;;5103445;27;20123;-77
2022/03/26 09:55:58;;;;;;;41.08;24.85;;;;;;;;;;5113071;27;20031;-77
2022/03/26 09:58:24;;;;;;;23.88;13.15;;;;;;;;;;5110235;27;20031;-76
2022/03/26 10:00:53;;;;;;;23.63;16.98;;;;;;;;;;5114367;27;20019;-75
2022/03/26 10:03:18;;;;;;;21.52;11.95;;;;;;;;;;5118313;28;20030;-72
2022/03/26 10:05:44;;;;;;;31.50;18.95;;;;;;;;;;5113709;28;20034;-73
2022/03/26 10:08:17;;;;;;;35.08;21.65;;;;;;;;;;5116468;27;20108;-72
2022/03/26 10:10:46;;;;;;;25.50;12.40;;;;;;;;;;5102855;28;20042;-77
2022/03/26 10:13:12;;;;;;;20.92;10.98;;;;;;;;;;5104503;27;20027;-73
2022/03/26 10:15:37;;;;;;;34.58;19.83;;;;;;;;;;5103423;27;20040;-72
2022/03/26 10:18:09;;;;;;;35.47;20.65;;;;;;;;;;5102408;28;20028;-73
2022/03/26 10:20:34;;;;;;;19.05;11.38;;;;;;;;;;5104138;28;20027;-76
2022/03/26 10:23:00;;;;;;;27.70;17.05;;;;;;;;;;5102220;28;20480;-76
2022/03/26 10:25:25;;;;;;;27.80;16.48;;;;;;;;;;5107408;27;20027;-77
2022/03/26 10:27:59;;;;;;;18.13;11.73;;;;;;;;;;5118955;27;20433;-74
2022/03/26 10:33:20;;;;;;;15.63;10.80;;;;;;;;;;5119446;27;20042;-73
2022/03/26 10:36:05;;;;;;;21.98;11.13;;;;;;;;;;5120094;27;20035;-72
2022/03/26 10:38:37;;;;;;;16.52;9.85;;;;;;;;;;5120638;27;20035;-72
2022/03/26 10:41:05;;;;;;;16.50;8.93;;;;;;;;;;5119180;27;20023;-71
2022/03/26 10:43:30;;;;;;;13.23;9.32;;;;;;;;;;5119417;27;20584;-76
2022/03/26 10:45:57;;;;;;;14.60;8.57;;;;;;;;;;5117950;27;20020;-76
2022/03/26 10:48:23;;;;;;;21.25;14.32;;;;;;;;;;5118073;27;20024;-72
2022/03/26 10:50:53;;;;;;;16.73;10.30;;;;;;;;;;5119696;27;20130;-75
2022/03/26 10:53:19;;;;;;;17.35;9.10;;;;;;;;;;5118366;27;20042;-73
2022/03/26 10:55:44;;;;;;;17.98;8.07;;;;;;;;;;5120606;27;20023;-71
2022/03/26 10:58:10;;;;;;;18.05;8.38;;;;;;;;;;5118418;27;20057;-72
2022/03/26 11:00:35;;;;;;;13.68;7.72;;;;;;;;;;5116757;27;20031;-72
2022/03/26 11:03:01;;;;;;;18.13;9.23;;;;;;;;;;5116427;27;20030;-72
2022/03/26 11:05:28;;;;;;;12.45;7.68;;;;;;;;;;5106195;27;20035;-72
2022/03/26 11:07:53;;;;;;;14.07;7.57;;;;;;;;;;5110773;27;20032;-73
2022/03/26 11:10:19;;;;;;;10.30;6.93;;;;;;;;;;5102549;27;20415;-72
2022/03/26 11:12:46;;;;;;;10.82;6.90;;;;;;;;;;5114643;27;20110;-75
2022/03/26 11:15:16;;;;;;;16.10;7.82;;;;;;;;;;5115748;27;20031;-72
2022/03/26 11:17:48;;;;;;;16.85;7.85;;;;;;;;;;5107534;27;20076;-75
2022/03/26 11:20:32;;;;;;;34.65;17.85;;;;;;;;;;5106631;27;20027;-72
2022/03/26 11:23:10;;;;;;;13.48;9.55;;;;;;;;;;5095820;27;20031;-77
2022/03/26 11:25:44;;;;;;;13.00;7.85;;;;;;;;;;5100196;27;20430;-72
2022/03/26 11:28:17;;;;;;;13.38;8.05;;;;;;;;;;5101958;27;20437;-75
2022/03/26 11:30:54;;;;;;;14.27;8.48;;;;;;;;;;5105599;27;20027;-73
2022/03/26 11:33:20;;;;;;;18.20;11.70;;;;;;;;;;5111701;27;20037;-74
2022/03/26 11:36:05;;;;;;;20.45;8.27;;;;;;;;;;5118186;27;20453;-72
2022/03/26 11:38:31;;;;;;;16.80;8.07;;;;;;;;;;5112847;27;20074;-72
2022/03/26 11:41:00;;;;;;;15.60;8.10;;;;;;;;;;5120284;27;20438;-74
2022/03/26 11:43:44;;;;;;;11.88;7.72;;;;;;;;;;5116087;27;20031;-75
2022/03/26 11:51:39;;;;;;;16.02;7.20;;;;;;;;;;5117199;27;20127;-74
2022/03/26 11:54:13;;;;;;;14.15;9.20;;;;;;;;;;5118041;27;20034;-74
2022/03/26 11:56:38;;;;;;;13.10;7.30;;;;;;;;;;5118652;27;20050;-75
2022/03/26 11:59:05;;;;;;;17.23;8.32;;;;;;;;;;5116536;27;20054;-75
2022/03/26 12:01:37;;;;;;;15.10;7.88;;;;;;;;;;5115750;27;20084;-73
2022/03/26 12:04:12;;;;;;;11.05;7.43;;;;;;;;;;5106198;27;20032;-74
2022/03/26 12:06:51;;;;;;;19.17;9.02;;;;;;;;;;5106400;27;20059;-75
2022/03/26 12:09:35;;;;;;;14.82;9.52;;;;;;;;;;5114629;27;20138;-76
2022/03/26 12:12:15;;;;;;;22.42;9.57;;;;;;;;;;5115688;27;20081;-74
2022/03/26 12:14:59;;;;;;;17.27;9.60;;;;;;;;;;5117901;27;20449;-71
2022/03/26 12:17:44;;;;;;;17.65;8.15;;;;;;;;;;5116421;27;20083;-74
2022/03/26 12:20:31;;;;;;;10.73;6.97;;;;;;;;;;5113535;27;20027;-72
2022/03/26 12:23:12;;;;;;;11.10;7.22;;;;;;;;;;5113895;27;20031;-71
2022/03/26 12:25:45;;;;;;;14.80;6.85;;;;;;;;;;5112713;27;20095;-69
2022/03/26 12:28:11;;;;;;;22.45;13.77;;;;;;;;;;5112657;27;20086;-70
2022/03/26 12:30:36;;;;;;;16.13;11.13;;;;;;;;;;5109656;27;20051;-71
2022/03/26 12:33:05;;;;;;;20.98;10.15;;;;;;;;;;5106439;27;20023;-71
2022/03/26 12:35:31;;;;;;;22.67;11.45;;;;;;;;;;5105215;27;20027;-70
2022/03/26 12:37:56;;;;;;;16.63;7.57;;;;;;;;;;5104249;27;20398;-70
2022/03/26 12:40:22;;;;;;;120.93;71.90;;;;;;;;;;5103737;27;20029;-70
2022/03/26 12:42:51;;;;;;;38.10;23.63;;;;;;;;;;5104757;27;20446;-71
2022/03/26 12:45:16;;;;;;;;;;;;;;;;;;5106119;27;20030;-71
2022/03/26 12:47:49;;;;;;;18.40;8.27;;;;;;;;;;5105007;27;20270;-71
2022/03/26 12:50:18;;;;;;;19.77;11.20;;;;;;;;;;5103014;27;20718;-71
2022/03/26 12:52:43;;;;;;;13.95;8.93;;;;;;;;;;5104506;27;20084;-71
2022/03/26 12:55:09;;;;;;;19.52;11.13;;;;;;;;;;5105977;27;20388;-72
2022/03/26 13:00:24;;;;;;;10.98;7.07;;;;;;;;;;5104409;27;20035;-71
2022/03/26 13:03:06;;;;;;;9.88;6.43;;;;;;;;;;5107248;27;20022;-70
2022/03/26 13:05:32;;;;;;;16.05;9.98;;;;;;;;;;5105451;27;20122;-71
2022/03/26 13:07:58;;;;;;;91.07;59.30;;;;;;;;;;5113228;27;20743;-73
2022/03/26 13:10:33;;;;;;;23.83;14.98;;;;;;;;;;5119039;27;20023;-78
2022/03/26 13:12:59;;;;;;;13.48;5.88;;;;;;;;;;5115370;27;20018;-75
2022/03/26 13:15:25;;;;;;;10.45;4.13;;;;;;;;;;5107250;27;20350;-77
2022/03/26 13:17:50;;;;;;;10.70;4.88;;;;;;;;;;5117871;27;20048;-77
2022/03/26 13:20:29;;;;;;;10.98;4.97;;;;;;;;;;5109035;27;20373;-75
2022/03/26 13:23:02;;;;;;;7.88;5.60;;;;;;;;;;5109811;27;20058;-72
2022/03/26 13:25:31;;;;;;;12.27;5.70;;;;;;;;;;5116964;27;20074;-72
2022/03/26 13:28:11;;;;;;;12.88;5.93;;;;;;;;;;5116163;27;20019;-71
2022/03/26 13:30:37;;;;;;;10.45;5.10;;;;;;;;;;5105499;27;20034;-72
2022/03/26 13:33:04;;;;;;;7.55;4.90;;;;;;;;;;5105235;27;20083;-72
2022/03/26 13:35:31;;;;;;;9.45;5.72;;;;;;;;;;5105657;27;20027;-75
2022/03/26 13:37:57;;;;;;;12.65;6.30;;;;;;;;;;5104033;27;20457;-71
2022/03/26 13:40:32;;;;;;;14.32;5.47;;;;;;;;;;5105063;27;20019;-71
2022/03/26 13:43:00;;;;;;;20.98;8.48;;;;;;;;;;5106077;27;20031;-74
2022/03/26 13:45:25;;;;;;;11.60;5.18;;;;;;;;;;5103741;27;20034;-73
2022/03/26 13:47:54;;;;;;;12.63;5.13;;;;;;;;;;5108638;27;20088;-73
2022/03/26 13:50:19;;;;;;;11.13;5.00;;;;;;;;;;5106749;27;20046;-75
2022/03/26 13:52:46;;;;;;;17.20;6.88;;;;;;;;;;5106412;27;20266;-77
2022/03/26 13:55:24;;;;;;;12.40;5.85;;;;;;;;;;5103791;27;20150;-74
2022/03/26 13:57:50;;;;;;;12.13;5.57;;;;;;;;;;5104097;27;20042;-74
2022/03/26 14:00:16;;;;;;;13.68;7.30;;;;;;;;;;5107995;27;20932;-73
2022/03/26 14:02:41;;;;;;;13.98;8.82;;;;;;;;;;5102440;27;20447;-73
2022/03/26 14:05:19;;;;;;;14.82;6.88;;;;;;;;;;5102726;27;20031;-73
2022/03/26 14:07:47;;;;;;;11.43;5.90;;;;;;;;;;5107970;28;20092;-73
2022/03/26 14:10:13;;;;;;;9.32;6.07;;;;;;;;;;5109237;28;20015;-74
2022/03/26 14:12:38;;;;;;;10.88;6.05;;;;;;;;;;5110339;28;20723;-72
2022/03/26 14:15:03;;;;;;;7.90;4.78;;;;;;;;;;5113515;27;20023;-72
2022/03/26 14:17:29;;;;;;;29.17;16.33;;;;;;;;;;5115256;27;20023;-72
2022/03/26 14:19:54;;;;;;;17.77;7.38;;;;;;;;;;5114422;27;20038;-71
2022/03/26 14:22:19;;;;;;;10.70;5.68;;;;;;;;;;5113859;28;20015;-72
2022/03/26 14:24:45;;;;;;;11.15;6.28;;;;;;;;;;5112539;27;20027;-71
2022/03/26 14:27:10;;;;;;;34.00;30.40;;;;;;;;;;5104877;28;20387;-71
2022/03/26 14:29:35;;;;;;;12.50;9.88;;;;;;;;;;5115831;27;20092;-72